Meadow Lake, Alaska
Current Conditions -  °F | °C
As of 5:56 AM on Sunday 23 Nov 2014 (Local Time) from PAWS Reporting Station
Few Clouds Few Clouds  
Wind Chill: 25°   Ceiling: Unl
Heat Index: 30°   Visibility: 10mi
Dew Point: 16°   Wind: 5mph
Humidity: 55%   Direction: 70°ENE
Pressure: 29.34"   Gusts: NA
Location:  61.5841°N, 149.443°W
Report Text: PAWS 231456Z AUTO 07004KT 10SM FEW039 FEW110 M01/M09 A2934 RMK AO1 60004 52014
Loading
Personal Weather Stations






























Interactive Weather Map New forecast layout! Learn more

10-Day Weather Forecast

Advertisements
Track Severe Weather on mobile